createdAt,value
2022-10-22T00:00:47.354Z,94.21
2022-10-22T00:01:47.344Z,94.31
2022-10-22T00:02:47.434Z,94.21
2022-10-22T00:03:47.325Z,94.21
2022-10-22T00:04:47.358Z,94.31
2022-10-22T00:05:47.303Z,94.31
2022-10-22T00:06:47.332Z,94.42
2022-10-22T00:07:47.263Z,94.42
2022-10-22T00:08:47.325Z,94.42
2022-10-22T00:09:47.242Z,94.42
2022-10-22T00:10:47.266Z,94.31
2022-10-22T00:11:47.267Z,94.21
2022-10-22T00:12:47.240Z,94.42
2022-10-22T00:14:47.209Z,94.42
2022-10-22T00:15:47.177Z,94.42
2022-10-22T00:16:47.240Z,94.21
2022-10-22T00:17:47.178Z,94.42
2022-10-22T00:18:47.158Z,94.42
2022-10-22T00:19:47.136Z,94.42
2022-10-22T00:20:47.121Z,94.52
2022-10-22T00:21:47.144Z,94.42
2022-10-22T00:22:47.191Z,94.31
2022-10-22T00:23:47.086Z,94.62
2022-10-22T00:24:47.113Z,94.52
2022-10-22T00:25:47.077Z,94.62
2022-10-22T00:26:47.091Z,94.62
2022-10-22T00:27:47.099Z,94.42
2022-10-22T00:28:47.021Z,94.42
2022-10-22T00:29:47.028Z,94.42
2022-10-22T00:30:47.018Z,94.52
2022-10-22T00:31:47.095Z,94.52
2022-10-22T00:32:46.983Z,94.52
2022-10-22T00:33:46.993Z,94.52
2022-10-22T00:34:46.974Z,94.42
2022-10-22T00:35:46.983Z,94.42
2022-10-22T00:36:46.942Z,94.31
2022-10-22T00:37:46.950Z,94.31
2022-10-22T00:38:46.965Z,94.21
2022-10-22T00:39:46.914Z,94.21
2022-10-22T00:40:46.912Z,94.11
2022-10-22T00:41:46.888Z,94.11
2022-10-22T00:42:46.903Z,94.01
2022-10-22T00:43:46.867Z,94.01
2022-10-22T00:44:46.843Z,93.90
2022-10-22T00:45:46.863Z,93.90
2022-10-22T00:46:46.827Z,93.90
2022-10-22T00:47:46.833Z,93.80
2022-10-22T00:48:46.819Z,93.70
2022-10-22T00:49:46.796Z,93.66
2022-10-22T00:50:46.812Z,93.55
2022-10-22T00:51:46.777Z,93.55
2022-10-22T00:52:46.783Z,93.55
2022-10-22T00:53:46.778Z,93.55
2022-10-22T00:54:46.738Z,93.35
2022-10-22T00:55:46.836Z,93.45
2022-10-22T00:56:46.710Z,93.45
2022-10-22T00:57:46.710Z,93.35
2022-10-22T00:58:46.686Z,93.45
2022-10-22T00:59:46.667Z,93.45
2022-10-22T01:00:46.753Z,93.35
2022-10-22T01:01:46.689Z,93.45
2022-10-22T01:02:46.629Z,93.35
2022-10-22T01:03:46.631Z,93.25
2022-10-22T01:04:46.621Z,93.15
2022-10-22T01:05:46.643Z,93.25
2022-10-22T01:06:46.607Z,93.35
2022-10-22T01:07:46.583Z,93.25
2022-10-22T01:08:46.575Z,93.35
2022-10-22T01:09:46.573Z,93.35
2022-10-22T01:10:46.552Z,93.40
2022-10-22T01:11:46.591Z,93.40
2022-10-22T01:12:46.531Z,93.40
2022-10-22T01:13:46.541Z,93.60
2022-10-22T01:14:46.491Z,93.70
2022-10-22T01:15:46.521Z,93.70
2022-10-22T01:16:46.471Z,93.60
2022-10-22T01:17:46.492Z,93.60
2022-10-22T01:18:46.457Z,93.60
2022-10-22T01:19:46.466Z,93.50
2022-10-22T01:20:46.457Z,93.60
2022-10-22T01:21:46.412Z,93.60
2022-10-22T01:22:46.436Z,93.70
2022-10-22T01:23:46.437Z,93.70
2022-10-22T01:24:46.396Z,93.70
2022-10-22T01:25:46.408Z,93.60
2022-10-22T01:26:46.360Z,93.60
2022-10-22T01:27:46.344Z,93.60
2022-10-22T01:28:46.325Z,93.60
2022-10-22T01:29:46.357Z,93.70
2022-10-22T01:30:46.329Z,93.70
2022-10-22T01:31:46.339Z,93.66
2022-10-22T01:32:46.286Z,93.66
2022-10-22T01:33:46.279Z,93.66
2022-10-22T01:34:46.306Z,93.66
2022-10-22T01:35:46.251Z,93.76
2022-10-22T01:36:46.272Z,93.55
2022-10-22T01:37:46.233Z,93.35
2022-10-22T01:38:46.207Z,93.35
2022-10-22T01:39:46.213Z,93.25
2022-10-22T01:40:46.235Z,93.25
2022-10-22T01:41:46.227Z,93.25
2022-10-22T01:42:46.215Z,93.05
2022-10-22T01:43:46.193Z,93.25
2022-10-22T01:44:46.156Z,93.15
2022-10-22T01:45:46.151Z,93.35
2022-10-22T01:46:46.182Z,93.40
2022-10-22T01:47:46.122Z,93.29
2022-10-22T01:48:46.090Z,93.19
2022-10-22T01:49:46.118Z,93.50
2022-10-22T01:50:46.098Z,93.60
2022-10-22T01:51:46.107Z,93.50
2022-10-22T01:52:46.074Z,93.50
2022-10-22T01:54:46.046Z,93.60
2022-10-22T01:55:46.043Z,93.50
2022-10-22T01:56:46.016Z,93.60
2022-10-22T01:57:46.026Z,93.50
2022-10-22T01:58:45.997Z,93.50
2022-10-22T01:59:45.986Z,93.50
2022-10-22T02:00:46.023Z,93.40
2022-10-22T02:01:45.943Z,93.50
2022-10-22T02:03:45.944Z,93.70
2022-10-22T02:04:45.958Z,93.60
2022-10-22T02:05:45.896Z,93.50
2022-10-22T02:06:45.910Z,93.70
2022-10-22T02:07:45.875Z,93.70
2022-10-22T02:08:45.911Z,93.60
2022-10-22T02:09:45.876Z,93.50
2022-10-22T02:10:45.850Z,93.50
2022-10-22T02:11:45.837Z,93.50
2022-10-22T02:12:45.882Z,93.50
2022-10-22T02:13:45.811Z,93.60
2022-10-22T02:14:45.831Z,93.54
2022-10-22T02:15:45.788Z,93.54
2022-10-22T02:16:45.783Z,93.54
2022-10-22T02:17:45.781Z,93.54
2022-10-22T02:18:45.793Z,93.85
2022-10-22T02:19:45.763Z,93.74
2022-10-22T02:20:45.720Z,93.74
2022-10-22T02:21:45.725Z,93.74
2022-10-22T02:22:45.734Z,93.74
2022-10-22T02:23:45.681Z,93.85
2022-10-22T02:24:45.748Z,93.85
2022-10-22T02:25:45.683Z,93.85
2022-10-22T02:26:45.653Z,93.74
2022-10-22T02:27:45.643Z,93.85
2022-10-22T02:28:45.636Z,93.95
2022-10-22T02:29:45.673Z,93.85
2022-10-22T02:30:45.625Z,93.95
2022-10-22T02:31:45.627Z,94.05
2022-10-22T02:32:45.599Z,94.05
2022-10-22T02:33:45.594Z,94.05
2022-10-22T02:34:45.555Z,94.15
2022-10-22T02:35:45.588Z,94.15
2022-10-22T02:36:48.185Z,94.26
2022-10-22T02:37:45.541Z,94.26
2022-10-22T02:38:45.549Z,94.15
2022-10-22T02:39:45.503Z,94.15
2022-10-22T02:40:45.530Z,94.26
2022-10-22T02:41:45.516Z,94.15
2022-10-22T02:42:45.508Z,94.15
2022-10-22T02:43:45.481Z,94.15
2022-10-22T02:44:45.461Z,94.15
2022-10-22T02:45:45.431Z,94.05
2022-10-22T02:46:45.450Z,94.05
2022-10-22T02:47:45.438Z,94.15
2022-10-22T02:48:45.485Z,94.15
2022-10-22T02:49:45.387Z,94.26
2022-10-22T02:50:45.433Z,94.26
2022-10-22T02:51:45.405Z,94.26
2022-10-22T02:52:45.360Z,94.15
2022-10-22T02:53:45.349Z,94.15
2022-10-22T02:54:45.330Z,94.26
2022-10-22T02:55:45.393Z,94.35
2022-10-22T02:56:45.309Z,94.35
2022-10-22T02:57:45.303Z,94.26
2022-10-22T02:58:45.296Z,94.15
2022-10-22T02:59:45.305Z,94.15
2022-10-22T03:00:45.279Z,94.05
2022-10-22T03:01:45.303Z,94.05
2022-10-22T03:02:45.233Z,94.05
2022-10-22T03:03:45.260Z,93.95
2022-10-22T03:04:45.210Z,94.05
2022-10-22T03:05:45.216Z,94.05
2022-10-22T03:06:45.186Z,94.05
2022-10-22T03:07:45.208Z,94.15
2022-10-22T03:08:45.230Z,94.15
2022-10-22T03:09:45.183Z,94.26
2022-10-22T03:10:45.143Z,94.35
2022-10-22T03:11:45.136Z,94.35
2022-10-22T03:12:45.159Z,94.26
2022-10-22T03:13:45.105Z,94.15
2022-10-22T03:14:45.117Z,94.05
2022-10-22T03:15:45.108Z,93.95
2022-10-22T03:16:45.119Z,93.95
2022-10-22T03:17:45.091Z,93.95
2022-10-22T03:18:45.110Z,93.95
2022-10-22T03:19:45.071Z,93.95
2022-10-22T03:20:45.043Z,93.95
2022-10-22T03:21:45.007Z,93.95
2022-10-22T03:22:45.042Z,93.85
2022-10-22T03:23:45.002Z,93.85
2022-10-22T03:24:45.026Z,93.85
2022-10-22T03:25:44.982Z,93.85
2022-10-22T03:26:44.965Z,93.85
2022-10-22T03:27:44.972Z,93.85
2022-10-22T03:28:44.943Z,93.85
2022-10-22T03:29:44.952Z,93.85
2022-10-22T03:30:44.939Z,93.85
2022-10-22T03:31:44.934Z,93.74
2022-10-22T03:32:44.904Z,93.74
2022-10-22T03:33:44.890Z,93.85
2022-10-22T03:34:44.884Z,93.85
2022-10-22T03:35:44.874Z,93.85
2022-10-22T03:36:44.893Z,93.85
2022-10-22T03:37:44.855Z,93.95
2022-10-22T03:38:44.846Z,93.95
2022-10-22T03:39:44.793Z,93.95
2022-10-22T03:40:44.827Z,93.95
2022-10-22T03:41:44.793Z,93.95
2022-10-22T03:42:44.837Z,93.95
2022-10-22T03:43:44.767Z,93.95
2022-10-22T03:44:44.743Z,93.95
2022-10-22T03:45:44.737Z,94.05
2022-10-22T03:46:44.748Z,94.05
2022-10-22T03:47:44.756Z,94.05
2022-10-22T03:48:44.754Z,94.15
2022-10-22T03:49:44.699Z,94.15
2022-10-22T03:50:44.684Z,94.26
2022-10-22T03:51:44.664Z,94.35
2022-10-22T03:52:44.677Z,94.50
2022-10-22T03:53:44.636Z,94.60
2022-10-22T03:54:44.662Z,94.60
2022-10-22T03:55:44.617Z,94.60
2022-10-22T03:56:44.617Z,94.71
2022-10-22T03:57:44.608Z,94.71
2022-10-22T03:58:44.620Z,94.71
2022-10-22T03:59:44.614Z,94.71
2022-10-22T04:00:44.609Z,94.81
2022-10-22T04:01:44.549Z,94.81
2022-10-22T04:02:44.560Z,94.81
2022-10-22T04:03:44.527Z,94.81
2022-10-22T04:04:44.509Z,94.71
2022-10-22T04:05:44.522Z,94.81
2022-10-22T04:06:44.493Z,94.81
2022-10-22T04:07:44.500Z,94.81
2022-10-22T04:08:44.549Z,94.81
2022-10-22T04:09:44.481Z,94.71
2022-10-22T04:10:44.471Z,94.76
2022-10-22T04:11:44.461Z,94.76
2022-10-22T04:12:44.496Z,94.81
2022-10-22T04:13:44.402Z,94.66
2022-10-22T04:14:44.415Z,94.56
2022-10-22T04:16:44.406Z,94.56
2022-10-22T04:17:44.404Z,94.46
2022-10-22T04:18:44.369Z,94.35
2022-10-22T04:19:44.363Z,94.46
2022-10-22T04:20:44.368Z,94.56
2022-10-22T04:21:44.314Z,94.56
2022-10-22T04:22:44.315Z,94.66
2022-10-22T04:23:44.292Z,94.56
2022-10-22T04:24:44.413Z,94.35
2022-10-22T04:25:44.318Z,94.46
2022-10-22T04:26:44.277Z,94.46
2022-10-22T04:27:44.262Z,94.26
2022-10-22T04:28:44.247Z,94.15
2022-10-22T04:29:44.217Z,93.95
2022-10-22T04:30:44.251Z,94.05
2022-10-22T04:31:44.239Z,94.15
2022-10-22T04:32:44.198Z,94.26
2022-10-22T04:33:44.191Z,94.26
2022-10-22T04:34:44.169Z,94.15
2022-10-22T04:35:44.161Z,94.15
2022-10-22T04:36:44.194Z,93.95
2022-10-22T04:37:44.186Z,94.05
2022-10-22T04:38:44.128Z,94.05
2022-10-22T04:39:44.150Z,93.95
2022-10-22T04:40:44.151Z,94.05
2022-10-22T04:41:44.109Z,93.95
2022-10-22T04:42:44.123Z,94.05
2022-10-22T04:43:44.060Z,94.15
2022-10-22T04:44:44.064Z,94.15
2022-10-22T04:45:44.127Z,94.11
2022-10-22T04:46:44.033Z,94.11
2022-10-22T04:47:44.206Z,94.26
2022-10-22T04:48:44.003Z,94.21
2022-10-22T04:49:44.011Z,94.11
2022-10-22T04:50:43.973Z,94.21
2022-10-22T04:51:43.976Z,94.11
2022-10-22T04:52:43.960Z,94.21
2022-10-22T04:53:43.976Z,94.21
2022-10-22T04:54:43.957Z,94.21
2022-10-22T04:55:43.916Z,94.11
2022-10-22T04:56:43.918Z,94.21
2022-10-22T04:57:43.918Z,94.15
2022-10-22T04:58:43.892Z,94.35
2022-10-22T04:59:43.917Z,94.21
2022-10-22T05:00:43.973Z,94.11
2022-10-22T05:01:43.862Z,94.11
2022-10-22T05:02:43.849Z,94.11
2022-10-22T05:03:43.839Z,93.90
2022-10-22T05:04:43.837Z,94.01
2022-10-22T05:05:43.860Z,94.11
2022-10-22T05:06:43.837Z,94.11
2022-10-22T05:07:43.944Z,94.21
2022-10-22T05:08:43.840Z,94.21
2022-10-22T05:09:43.792Z,94.21
2022-10-22T05:10:43.751Z,94.21
2022-10-22T05:11:43.748Z,94.11
2022-10-22T05:12:43.719Z,94.21
2022-10-22T05:13:43.720Z,94.21
2022-10-22T05:14:44.790Z,94.11
2022-10-22T05:15:43.723Z,94.11
2022-10-22T05:16:43.711Z,94.11
2022-10-22T05:17:43.758Z,94.31
2022-10-22T05:18:43.703Z,94.42
2022-10-22T05:19:43.676Z,94.42
2022-10-22T05:20:43.644Z,94.52
2022-10-22T05:21:43.665Z,94.52
2022-10-22T05:22:43.624Z,94.62
2022-10-22T05:23:43.615Z,94.52
2022-10-22T05:24:43.580Z,94.52
2022-10-22T05:25:43.591Z,94.52
2022-10-22T05:26:43.605Z,94.52
2022-10-22T05:27:43.805Z,94.42
2022-10-22T05:28:43.554Z,94.31
2022-10-22T05:29:43.534Z,94.21
2022-10-22T05:30:43.525Z,94.27
2022-10-22T05:31:43.523Z,94.37
2022-10-22T05:32:43.507Z,94.37
2022-10-22T05:33:43.504Z,94.27
2022-10-22T05:34:43.474Z,94.37
2022-10-22T05:35:46.759Z,94.37
2022-10-22T05:36:43.445Z,94.37
2022-10-22T05:37:43.848Z,94.37
2022-10-22T05:38:43.438Z,94.37
2022-10-22T05:39:43.426Z,94.37
2022-10-22T05:40:43.406Z,94.47
2022-10-22T05:41:43.408Z,94.37
2022-10-22T05:42:43.486Z,94.47
2022-10-22T05:43:43.366Z,94.57
2022-10-22T05:44:43.359Z,94.57
2022-10-22T05:45:43.401Z,94.57
2022-10-22T05:46:43.466Z,94.68
2022-10-22T05:47:43.320Z,94.68
2022-10-22T05:48:43.318Z,94.78
2022-10-22T05:49:43.313Z,95.08
2022-10-22T05:50:43.280Z,95.18
2022-10-22T05:51:43.304Z,95.29
2022-10-22T05:52:43.539Z,95.29
2022-10-22T05:53:43.300Z,95.39
2022-10-22T05:54:43.241Z,95.39
2022-10-22T05:55:43.221Z,95.34
2022-10-22T05:56:43.232Z,95.24
2022-10-22T05:57:43.209Z,95.14
2022-10-22T05:58:43.247Z,94.93
2022-10-22T05:59:43.206Z,94.89
2022-10-22T06:00:43.152Z,95.00
2022-10-22T06:01:43.169Z,95.00
2022-10-22T06:02:43.293Z,94.89
2022-10-22T06:03:43.150Z,94.79
2022-10-22T06:04:43.139Z,94.69
2022-10-22T06:05:43.094Z,94.59
2022-10-22T06:06:43.093Z,94.59
2022-10-22T06:07:43.075Z,94.44
2022-10-22T06:08:43.158Z,94.34
2022-10-22T06:09:43.077Z,94.34
2022-10-22T06:10:43.058Z,94.34
2022-10-22T06:11:43.064Z,94.34
2022-10-22T06:12:43.211Z,94.24
2022-10-22T06:13:43.007Z,94.34
2022-10-22T06:14:43.052Z,94.13
2022-10-22T06:15:42.990Z,94.04
2022-10-22T06:16:43.000Z,94.24
2022-10-22T06:17:42.981Z,94.13
2022-10-22T06:18:42.969Z,94.04
2022-10-22T06:19:42.951Z,93.93
2022-10-22T06:20:42.971Z,93.79
2022-10-22T06:21:42.910Z,93.48
2022-10-22T06:22:43.313Z,93.07
2022-10-22T06:23:42.908Z,92.87
2022-10-22T06:24:45.085Z,92.57
2022-10-22T06:25:42.884Z,92.26
2022-10-22T06:26:42.879Z,92.02
2022-10-22T06:27:42.873Z,91.61
2022-10-22T06:28:42.851Z,91.30
2022-10-22T06:29:42.863Z,90.90
2022-10-22T06:30:44.412Z,90.90
2022-10-22T06:31:42.799Z,90.70
2022-10-22T06:32:43.036Z,90.90
2022-10-22T06:33:42.784Z,91.20
2022-10-22T06:34:42.752Z,91.41
2022-10-22T06:35:42.752Z,91.20
2022-10-22T06:36:42.990Z,91.61
2022-10-22T06:37:43.214Z,91.61
2022-10-22T06:38:42.727Z,92.02
2022-10-22T06:39:42.714Z,92.12
2022-10-22T06:40:42.691Z,92.32
2022-10-22T06:41:42.707Z,92.42
2022-10-22T06:42:43.062Z,92.52
2022-10-22T06:43:42.777Z,92.42
2022-10-22T06:44:42.647Z,92.63
2022-10-22T06:45:42.624Z,92.52
2022-10-22T06:46:43.541Z,92.52
2022-10-22T06:47:43.094Z,92.83
2022-10-22T06:48:42.610Z,92.93
2022-10-22T06:49:42.623Z,92.93
2022-10-22T06:50:42.583Z,93.03
2022-10-22T06:51:42.590Z,92.93
2022-10-22T06:52:42.569Z,92.83
2022-10-22T06:53:42.538Z,92.83
2022-10-22T06:54:42.577Z,92.72
2022-10-22T06:55:42.537Z,92.52
2022-10-22T06:56:42.520Z,92.32
2022-10-22T06:57:42.914Z,92.32
2022-10-22T06:58:42.491Z,92.42
2022-10-22T06:59:42.483Z,92.42
2022-10-22T07:00:42.516Z,92.12
2022-10-22T07:01:42.503Z,91.71
2022-10-22T07:02:42.976Z,91.41
2022-10-22T07:03:42.419Z,91.00
2022-10-22T07:04:42.429Z,91.16
2022-10-22T07:05:42.464Z,91.26
2022-10-22T07:06:42.381Z,91.67
2022-10-22T07:07:42.371Z,92.18
2022-10-22T07:08:42.453Z,92.48
2022-10-22T07:09:42.387Z,92.63
2022-10-22T07:10:42.371Z,92.72
2022-10-22T07:11:42.377Z,92.93
2022-10-22T07:12:42.376Z,93.13
2022-10-22T07:13:42.336Z,93.24
2022-10-22T07:14:42.314Z,93.33
2022-10-22T07:15:42.346Z,93.44
2022-10-22T07:16:42.286Z,93.64
2022-10-22T07:17:42.267Z,93.84
2022-10-22T07:18:42.305Z,94.05
2022-10-22T07:19:42.248Z,94.15
2022-10-22T07:20:42.256Z,94.25
2022-10-22T07:21:42.249Z,94.15
2022-10-22T07:22:42.692Z,94.05
2022-10-22T07:23:42.185Z,94.15
2022-10-22T07:24:42.188Z,94.15
2022-10-22T07:25:42.190Z,93.95
2022-10-22T07:26:42.179Z,93.84
2022-10-22T07:27:42.505Z,93.64
2022-10-22T07:28:42.128Z,93.64
2022-10-22T07:29:42.117Z,93.54
2022-10-22T07:30:42.127Z,93.44
2022-10-22T07:31:42.118Z,93.33
2022-10-22T07:32:42.088Z,93.33
2022-10-22T07:33:42.098Z,93.24
2022-10-22T07:34:43.826Z,93.33
2022-10-22T07:35:42.048Z,93.44
2022-10-22T07:36:42.066Z,93.44
2022-10-22T07:37:42.344Z,93.33
2022-10-22T07:38:42.023Z,93.33
2022-10-22T07:39:42.052Z,93.33
2022-10-22T07:40:42.026Z,93.44
2022-10-22T07:41:42.000Z,93.44
2022-10-22T07:42:41.983Z,93.33
2022-10-22T07:43:41.955Z,92.52
2022-10-22T07:44:41.931Z,91.82
2022-10-22T07:45:41.975Z,90.39
2022-10-22T07:46:43.505Z,89.68
2022-10-22T07:47:42.281Z,89.33
2022-10-22T07:48:41.893Z,89.43
2022-10-22T07:49:41.885Z,89.74
2022-10-22T07:50:41.936Z,90.25
2022-10-22T07:51:41.897Z,90.61
2022-10-22T07:52:42.217Z,91.06
2022-10-22T07:53:41.834Z,91.36
2022-10-22T07:54:41.837Z,90.45
2022-10-22T07:55:41.847Z,91.36
2022-10-22T07:56:41.817Z,89.03
2022-10-22T07:57:41.815Z,88.42
2022-10-22T07:58:41.781Z,88.32
2022-10-22T07:59:41.820Z,88.38
2022-10-22T08:00:41.763Z,87.46
2022-10-22T08:01:41.786Z,86.96
2022-10-22T08:02:42.030Z,87.16
2022-10-22T08:03:41.757Z,86.96
2022-10-22T08:04:41.730Z,87.46
2022-10-22T08:05:41.708Z,87.57
2022-10-22T08:06:44.590Z,87.67
2022-10-22T08:07:42.690Z,87.77
2022-10-22T08:08:41.701Z,88.28
2022-10-22T08:09:41.679Z,89.09
2022-10-22T08:10:41.669Z,90.00
2022-10-22T08:11:41.673Z,90.31
2022-10-22T08:12:42.006Z,90.71
2022-10-22T08:13:45.353Z,90.92
2022-10-22T08:14:41.605Z,90.61
2022-10-22T08:15:41.620Z,90.31
2022-10-22T08:16:41.562Z,90.31
2022-10-22T08:17:41.756Z,90.31
2022-10-22T08:18:41.541Z,90.41
2022-10-22T08:19:41.604Z,90.20
2022-10-22T08:20:41.540Z,90.31
2022-10-22T08:21:41.510Z,90.16
2022-10-22T08:22:41.545Z,90.26
2022-10-22T08:23:41.494Z,90.26
2022-10-22T08:24:41.473Z,90.06
2022-10-22T08:25:41.496Z,90.26
2022-10-22T08:26:41.444Z,90.57
2022-10-22T08:27:41.829Z,90.36
2022-10-22T08:28:41.445Z,90.16
2022-10-22T08:29:41.435Z,89.92
2022-10-22T08:30:41.417Z,89.11
2022-10-22T08:31:41.404Z,88.66
2022-10-22T08:32:41.405Z,88.15
2022-10-22T08:33:41.492Z,87.60
2022-10-22T08:34:41.365Z,87.71
2022-10-22T08:35:41.381Z,86.59
2022-10-22T08:36:41.351Z,86.76
2022-10-22T08:37:41.627Z,86.55
2022-10-22T08:38:41.338Z,86.25
2022-10-22T08:39:41.329Z,86.10
2022-10-22T08:40:41.391Z,86.00
2022-10-22T08:41:41.318Z,85.10
2022-10-22T08:42:41.713Z,85.80
2022-10-22T08:43:41.279Z,85.94
2022-10-22T08:44:41.249Z,85.64
2022-10-22T08:45:41.263Z,84.93
2022-10-22T08:46:41.241Z,85.24
2022-10-22T08:47:41.203Z,84.79
2022-10-22T08:48:41.200Z,82.53
2022-10-22T08:49:42.178Z,82.53
2022-10-22T08:50:41.191Z,81.48
2022-10-22T08:51:41.205Z,81.48
2022-10-22T08:52:41.389Z,80.87
2022-10-22T08:53:41.164Z,80.32
2022-10-22T08:54:41.145Z,80.69
2022-10-22T08:55:41.186Z,79.48
2022-10-22T08:56:41.145Z,79.08
2022-10-22T08:57:41.114Z,79.17
2022-10-22T08:58:41.103Z,78.77
2022-10-22T08:59:41.087Z,79.08
2022-10-22T09:00:41.181Z,79.28
2022-10-22T09:01:41.084Z,79.48
2022-10-22T09:02:41.319Z,78.77
2022-10-22T09:03:41.024Z,79.08
2022-10-22T09:04:41.026Z,79.82
2022-10-22T09:05:41.118Z,80.32
2022-10-22T09:06:40.997Z,80.12
2022-10-22T09:07:41.297Z,80.43
2022-10-22T09:08:41.062Z,80.22
2022-10-22T09:09:40.990Z,80.22
2022-10-22T09:10:40.951Z,80.08
2022-10-22T09:11:40.928Z,79.94
2022-10-22T09:12:40.931Z,79.04
2022-10-22T09:13:40.942Z,78.59
2022-10-22T09:14:40.918Z,78.50
2022-10-22T09:15:43.714Z,78.80
2022-10-22T09:16:40.869Z,78.50
2022-10-22T09:17:41.212Z,78.06
2022-10-22T09:18:40.883Z,73.55
2022-10-22T09:19:40.830Z,69.62
2022-10-22T09:20:40.843Z,65.48
2022-10-22T09:21:40.825Z,62.70
2022-10-22T09:22:40.825Z,60.74
2022-10-22T09:23:40.793Z,59.98
2022-10-22T09:24:40.802Z,58.00
2022-10-22T09:25:40.785Z,56.55
2022-10-22T09:26:40.772Z,55.60
2022-10-22T09:27:41.018Z,54.48
2022-10-22T09:28:40.734Z,53.44
2022-10-22T09:29:40.733Z,52.72
2022-10-22T09:30:40.767Z,53.98
2022-10-22T09:31:40.711Z,51.89
2022-10-22T09:32:40.895Z,51.20
2022-10-22T09:33:40.690Z,51.70
2022-10-22T09:34:40.667Z,51.37
2022-10-22T09:35:40.720Z,50.21
2022-10-22T09:36:40.666Z,51.57
2022-10-22T09:37:40.627Z,50.53
2022-10-22T09:38:40.624Z,49.74
2022-10-22T09:39:40.642Z,49.05
2022-10-22T09:40:40.636Z,47.98
2022-10-22T09:41:40.611Z,48.94
2022-10-22T09:42:40.819Z,50.23
2022-10-22T09:43:40.613Z,49.15
2022-10-22T09:44:43.693Z,48.13
2022-10-22T09:45:41.561Z,48.33
2022-10-22T09:46:40.584Z,48.23
2022-10-22T09:48:41.534Z,48.43
2022-10-22T09:49:40.505Z,48.03
2022-10-22T09:50:40.497Z,48.13
2022-10-22T09:51:40.492Z,48.43
2022-10-22T09:52:40.861Z,48.05
2022-10-22T09:53:40.486Z,48.35
2022-10-22T09:54:40.465Z,47.75
2022-10-22T09:55:40.434Z,47.46
2022-10-22T09:56:40.434Z,47.24
2022-10-22T09:57:42.342Z,46.92
2022-10-22T09:58:40.428Z,47.31
2022-10-22T09:59:40.416Z,47.44
2022-10-22T10:00:40.366Z,47.44
2022-10-22T10:01:40.402Z,47.83
2022-10-22T10:02:40.371Z,47.93
2022-10-22T10:03:40.367Z,47.46
2022-10-22T10:04:40.327Z,47.44
2022-10-22T10:05:40.318Z,47.04
2022-10-22T10:06:40.362Z,46.12
2022-10-22T10:07:40.652Z,46.89
2022-10-22T10:08:40.377Z,46.64
2022-10-22T10:09:40.293Z,46.94
2022-10-22T10:10:40.291Z,48.30
2022-10-22T10:11:40.294Z,47.75
2022-10-22T10:12:40.323Z,46.45
2022-10-22T10:13:40.243Z,46.67
2022-10-22T10:14:40.252Z,46.07
2022-10-22T10:15:40.245Z,46.51
2022-10-22T10:16:40.240Z,49.26
2022-10-22T10:17:40.514Z,47.05
2022-10-22T10:18:40.186Z,46.93
2022-10-22T10:19:40.165Z,45.92
2022-10-22T10:20:40.198Z,45.79
2022-10-22T10:21:40.165Z,45.72
2022-10-22T10:22:40.478Z,46.22
2022-10-22T10:23:40.130Z,46.79
2022-10-22T10:24:40.120Z,46.98
2022-10-22T10:25:40.116Z,46.79
2022-10-22T10:26:40.087Z,46.59
2022-10-22T10:27:40.101Z,46.49
2022-10-22T10:28:40.089Z,46.09
2022-10-22T10:29:40.073Z,46.27
2022-10-22T10:30:40.070Z,46.37
2022-10-22T10:31:40.033Z,46.19
2022-10-22T10:32:40.421Z,47.09
2022-10-22T10:33:40.009Z,46.19
2022-10-22T10:34:40.013Z,46.09
2022-10-22T10:35:40.011Z,45.87
2022-10-22T10:36:40.011Z,45.78
2022-10-22T10:37:39.982Z,45.90
2022-10-22T10:38:40.010Z,45.87
2022-10-22T10:39:40.044Z,48.14
2022-10-22T10:40:39.976Z,48.39
2022-10-22T10:41:39.966Z,49.26
2022-10-22T10:42:40.261Z,52.25
2022-10-22T10:43:39.918Z,54.32
2022-10-22T10:44:39.927Z,55.57
2022-10-22T10:45:39.894Z,56.59
2022-10-22T10:46:39.897Z,56.92
2022-10-22T10:47:40.263Z,58.28
2022-10-22T10:48:39.859Z,58.91
2022-10-22T10:49:39.836Z,57.39
2022-10-22T10:50:39.851Z,54.36
2022-10-22T10:51:39.871Z,51.89
2022-10-22T10:52:39.797Z,51.79
2022-10-22T10:53:39.817Z,50.27
2022-10-22T10:54:39.853Z,50.15
2022-10-22T10:55:39.769Z,51.32
2022-10-22T10:56:39.772Z,51.62
2022-10-22T10:57:40.086Z,49.66
2022-10-22T10:58:39.763Z,49.23
2022-10-22T10:59:39.730Z,48.11
2022-10-22T11:00:39.701Z,47.87
2022-10-22T11:01:39.763Z,47.55
2022-10-22T11:02:39.704Z,47.87
2022-10-22T11:03:39.672Z,46.73
2022-10-22T11:04:39.716Z,47.13
2022-10-22T11:05:39.676Z,47.85
2022-10-22T11:06:39.715Z,46.91
2022-10-22T11:07:39.649Z,47.31
2022-10-22T11:08:39.665Z,46.49
2022-10-22T11:09:39.620Z,47.65
2022-10-22T11:10:39.596Z,48.47
2022-10-22T11:11:39.620Z,49.23
2022-10-22T11:12:39.869Z,49.85
2022-10-22T11:13:39.580Z,48.83
2022-10-22T11:14:39.560Z,48.24
2022-10-22T11:15:39.560Z,50.40
2022-10-22T11:16:39.568Z,49.11
2022-10-22T11:17:39.538Z,47.77
2022-10-22T11:18:39.528Z,47.42
2022-10-22T11:19:51.053Z,48.80
2022-10-22T11:20:40.480Z,50.02
2022-10-22T11:21:39.535Z,49.40
2022-10-22T11:22:44.489Z,49.83
2022-10-22T11:23:40.525Z,49.70
2022-10-22T11:24:39.433Z,48.44
2022-10-22T11:25:39.441Z,47.22
2022-10-22T11:26:39.457Z,47.02
2022-10-22T11:27:39.800Z,46.72
2022-10-22T11:28:39.404Z,48.41
2022-10-22T11:29:39.426Z,49.83
2022-10-22T11:30:39.390Z,48.86
2022-10-22T11:31:39.367Z,47.92
2022-10-22T11:32:39.654Z,47.22
2022-10-22T11:33:39.339Z,47.40
2022-10-22T11:34:39.315Z,46.28
2022-10-22T11:35:39.349Z,46.19
2022-10-22T11:36:39.309Z,47.13
2022-10-22T11:37:39.655Z,47.30
2022-10-22T11:38:39.279Z,46.95
2022-10-22T11:39:39.266Z,50.00
2022-10-22T11:40:39.268Z,49.43
2022-10-22T11:41:39.267Z,49.51
2022-10-22T11:42:39.238Z,48.04
2022-10-22T11:43:39.220Z,47.60
2022-10-22T11:44:39.332Z,47.14
2022-10-22T11:45:39.212Z,48.16
2022-10-22T11:46:39.199Z,48.01
2022-10-22T11:47:39.407Z,48.41
2022-10-22T11:48:39.175Z,47.66
2022-10-22T11:49:39.152Z,47.34
2022-10-22T11:50:39.183Z,48.61
2022-10-22T11:51:39.164Z,50.25
2022-10-22T11:52:39.151Z,48.98
2022-10-22T11:53:39.344Z,47.77
2022-10-22T11:54:39.128Z,47.54
2022-10-22T11:55:39.099Z,47.54
2022-10-22T11:56:39.118Z,46.80
2022-10-22T11:57:39.633Z,45.76
2022-10-22T11:58:39.069Z,45.05
2022-10-22T11:59:39.049Z,44.95
2022-10-22T12:00:39.049Z,44.33
2022-10-22T12:01:39.031Z,43.22
2022-10-22T12:02:39.130Z,43.60
2022-10-22T12:03:38.998Z,43.10
2022-10-22T12:04:39.065Z,43.20
2022-10-22T12:05:38.978Z,43.34
2022-10-22T12:06:39.014Z,43.56
2022-10-22T12:07:38.952Z,43.66
2022-10-22T12:08:39.036Z,44.35
2022-10-22T12:09:38.972Z,44.45
2022-10-22T12:10:38.918Z,43.66
2022-10-22T12:11:38.961Z,44.25
2022-10-22T12:12:39.189Z,44.48
2022-10-22T12:13:38.872Z,45.73
2022-10-22T12:14:38.894Z,46.23
2022-10-22T12:15:38.866Z,45.63
2022-10-22T12:16:55.036Z,45.75
2022-10-22T12:17:39.824Z,46.27
2022-10-22T12:18:38.844Z,46.97
2022-10-22T12:19:38.850Z,46.23
2022-10-22T12:20:38.817Z,45.71
2022-10-22T12:21:38.834Z,44.93
2022-10-22T12:22:39.053Z,45.21
2022-10-22T12:23:38.787Z,44.84
2022-10-22T12:24:38.803Z,45.03
2022-10-22T12:25:38.736Z,45.11
2022-10-22T12:26:38.761Z,45.11
2022-10-22T12:27:39.096Z,46.13
2022-10-22T12:28:38.717Z,46.72
2022-10-22T12:29:38.742Z,49.20
2022-10-22T12:30:38.711Z,50.84
2022-10-22T12:31:38.692Z,52.09
2022-10-22T12:32:38.683Z,53.12
2022-10-22T12:33:38.703Z,53.77
2022-10-22T12:34:38.721Z,54.39
2022-10-22T12:35:38.653Z,55.40
2022-10-22T12:36:38.634Z,55.32
2022-10-22T12:37:38.882Z,55.73
2022-10-22T12:38:38.632Z,56.13
2022-10-22T12:39:38.623Z,56.23
2022-10-22T12:40:38.618Z,56.63
2022-10-22T12:41:38.654Z,56.73
2022-10-22T12:42:38.555Z,57.15
2022-10-22T12:43:38.598Z,57.06
2022-10-22T12:44:38.544Z,57.15
2022-10-22T12:45:38.540Z,57.06
2022-10-22T12:46:38.553Z,57.15
2022-10-22T12:47:38.781Z,57.46
2022-10-22T12:48:38.538Z,57.35
2022-10-22T12:49:38.519Z,57.56
2022-10-22T12:50:38.466Z,57.46
2022-10-22T12:51:38.470Z,57.15
2022-10-22T12:52:38.685Z,57.46
2022-10-22T12:53:38.430Z,57.63
2022-10-22T12:54:38.430Z,57.23
2022-10-22T12:55:38.472Z,56.93
2022-10-22T12:56:38.412Z,57.15
2022-10-22T12:57:38.412Z,57.76